Time;durP1;ratioP1;P1;durP2;ratioP2;P2;SDS_P1;SDS_P2;PMS_P1;PMS_P2;Temp;Humidity;BMP_temperature;BMP_pressure;BME280_temperature;BME280_humidity;BME280_pressure;Samples;Min_cycle;Max_cycle;Signal;HPM_P1;HPM_P2
2021/06/19 00:02:11;;;;;;;;;15.00;15.00;;;;;16.74;100.00;101150.34;3724622;38;20708;-61
2021/06/19 00:04:39;;;;;;;;;17.00;16.00;;;;;16.74;100.00;101145.72;3724727;38;20698;-62
2021/06/19 00:07:06;;;;;;;;;13.00;12.75;;;;;16.67;100.00;101155.81;3725220;37;20204;-62
2021/06/19 00:09:33;;;;;;;;;14.75;14.75;;;;;16.60;100.00;101154.12;3725010;37;20180;-62
2021/06/19 00:12:02;;;;;;;;;14.50;14.50;;;;;16.56;100.00;101156.44;3725146;38;20202;-62
2021/06/19 00:14:28;;;;;;;;;13.25;13.25;;;;;16.53;100.00;101160.41;3724646;37;20408;-62
2021/06/19 00:16:55;;;;;;;;;11.75;11.75;;;;;16.54;100.00;101155.78;3725176;37;20171;-61
2021/06/19 00:19:21;;;;;;;;;10.25;10.25;;;;;16.53;100.00;101165.03;3726853;38;20196;-61
2021/06/19 00:21:48;;;;;;;;;12.50;12.25;;;;;16.54;100.00;101161.25;3725418;37;20157;-61
2021/06/19 00:24:24;;;;;;;;;13.50;13.50;;;;;16.58;100.00;101159.78;3725375;38;20158;-62
2021/06/19 00:26:52;;;;;;;;;12.50;12.50;;;;;16.63;100.00;101165.47;3725322;38;20159;-63
2021/06/19 00:29:20;;;;;;;;;12.75;12.75;;;;;16.65;100.00;101168.00;3724784;37;20153;-63
2021/06/19 00:31:49;;;;;;;;;11.00;11.00;;;;;16.67;100.00;101163.16;3724873;38;20155;-63
2021/06/19 00:34:19;;;;;;;;;9.00;9.00;;;;;16.70;100.00;101166.31;3724916;38;20136;-62
2021/06/19 00:36:47;;;;;;;;;15.50;14.25;;;;;16.66;100.00;101170.53;3725050;37;20112;-62
2021/06/19 00:39:15;;;;;;;;;12.50;11.50;;;;;16.72;100.00;101177.06;3725039;37;20173;-61
2021/06/19 00:41:43;;;;;;;;;11.00;11.00;;;;;16.70;100.00;101171.78;3725064;37;20182;-62
2021/06/19 00:44:21;;;;;;;;;13.25;12.50;;;;;16.73;100.00;101170.53;3725088;37;20157;-61
2021/06/19 00:46:58;;;;;;;;;13.50;13.00;;;;;16.72;100.00;101168.84;3724893;38;20125;-61
2021/06/19 00:49:26;;;;;;;;;11.50;11.25;;;;;16.67;100.00;101158.53;3724845;37;20126;-62
2021/06/19 00:51:54;;;;;;;;;13.75;13.75;;;;;16.59;100.00;101163.38;3725090;38;20258;-61
2021/06/19 00:54:23;;;;;;;;;10.50;10.50;;;;;16.61;100.00;101155.81;3725072;38;20152;-61
2021/06/19 00:56:50;;;;;;;;;11.25;11.25;;;;;16.66;100.00;101165.06;3725031;38;20111;-62
2021/06/19 00:59:17;;;;;;;;;12.00;12.00;;;;;16.70;100.00;101160.88;3724749;37;20102;-62
2021/06/19 01:01:45;;;;;;;;;14.75;14.75;;;;;16.64;100.00;101158.97;3725103;37;20123;-62
2021/06/19 01:04:16;;;;;;;;;14.00;14.00;;;;;16.61;100.00;101159.37;3724699;37;20118;-61
2021/06/19 01:06:44;;;;;;;;;11.50;11.25;;;;;16.52;100.00;101153.28;3724737;37;20138;-62
2021/06/19 01:09:11;;;;;;;;;10.25;10.25;;;;;16.45;100.00;101148.84;3724998;37;20118;-61
2021/06/19 01:11:38;;;;;;;;;8.25;7.50;;;;;16.41;100.00;101151.16;3725060;38;20116;-62
2021/06/19 01:14:07;;;;;;;;;11.25;11.25;;;;;16.38;100.00;101146.09;3725133;37;20045;-61
2021/06/19 01:16:35;;;;;;;;;11.75;11.25;;;;;16.37;100.00;101159.97;3724806;38;20099;-63
2021/06/19 01:19:03;;;;;;;;;10.25;10.25;;;;;16.33;100.00;101154.06;3724744;37;20092;-63
2021/06/19 01:21:31;;;;;;;;;12.75;12.00;;;;;16.28;100.00;101159.31;3725062;38;20082;-61
2021/06/19 01:23:58;;;;;;;;;13.00;12.75;;;;;16.20;100.00;101152.13;3724829;37;20077;-62
2021/06/19 01:26:28;;;;;;;;;10.00;10.00;;;;;16.13;100.00;101154.00;3725207;37;20068;-62
2021/06/19 01:28:56;;;;;;;;;13.00;12.00;;;;;16.09;100.00;101158.22;3724465;38;20067;-61
2021/06/19 01:31:23;;;;;;;;;9.00;9.00;;;;;16.07;100.00;101154.84;3725205;38;20100;-61
2021/06/19 01:33:52;;;;;;;;;13.00;12.50;;;;;16.01;100.00;101155.69;3724638;38;20072;-61
2021/06/19 01:36:23;;;;;;;;;11.75;11.75;;;;;16.00;100.00;101158.59;3724894;38;20078;-62
2021/06/19 01:38:54;;;;;;;;;10.50;10.00;;;;;15.99;100.00;101156.94;3725037;38;20080;-62
2021/06/19 01:41:29;;;;;;;;;9.75;9.75;;;;;15.90;100.00;101145.34;3725036;38;20082;-62
2021/06/19 01:44:08;;;;;;;;;11.00;11.00;;;;;15.82;100.00;101150.97;3725240;38;20059;-61
2021/06/19 01:46:38;;;;;;;;;11.50;11.50;;;;;15.86;100.00;101146.78;3725325;37;20069;-61
2021/06/19 01:49:06;;;;;;;;;11.25;11.25;;;;;15.84;100.00;101152.44;3725270;38;20040;-61
2021/06/19 01:51:34;;;;;;;;;11.00;11.00;;;;;15.88;100.00;101161.06;3725060;37;20054;-64
2021/06/19 01:54:00;;;;;;;;;9.25;9.25;;;;;15.88;100.00;101155.63;3725066;37;21029;-62
2021/06/19 01:56:27;;;;;;;;;10.00;10.00;;;;;15.87;100.00;101162.13;3725054;38;20011;-63
2021/06/19 01:58:54;;;;;;;;;7.00;7.00;;;;;15.82;100.00;101161.88;3725100;37;20054;-61
2021/06/19 02:01:23;;;;;;;;;10.25;10.25;;;;;15.76;100.00;101166.28;3725112;37;20964;-63
2021/06/19 02:03:51;;;;;;;;;9.00;9.00;;;;;15.75;100.00;101174.66;3724741;37;21037;-62
2021/06/19 02:06:18;;;;;;;;;11.00;11.00;;;;;15.74;100.00;101175.69;3724783;38;20968;-63
2021/06/19 02:09:09;;;;;;;;;10.00;10.00;;;;;15.68;100.00;101174.62;3725015;37;21036;-63
2021/06/19 02:11:38;;;;;;;;;10.50;10.50;;;;;15.65;100.00;101171.44;3725259;37;21036;-63
2021/06/19 02:14:07;;;;;;;;;9.50;9.00;;;;;15.63;100.00;101177.13;3724832;37;21007;-62
2021/06/19 02:16:34;;;;;;;;;12.50;12.00;;;;;15.60;100.00;101176.69;3724761;37;20992;-61
2021/06/19 02:19:01;;;;;;;;;11.50;11.25;;;;;15.59;100.00;101180.47;3725130;38;21115;-61
2021/06/19 02:21:28;;;;;;;;;12.25;12.25;;;;;15.58;100.00;101174.19;3724728;37;21012;-64
2021/06/19 02:23:56;;;;;;;;;12.50;12.00;;;;;15.61;100.00;101173.75;3725205;37;21001;-64
2021/06/19 02:26:23;;;;;;;;;9.25;9.25;;;;;15.59;100.00;101169.56;3725118;38;21021;-61
2021/06/19 02:28:52;;;;;;;;;10.75;10.75;;;;;15.59;100.00;101167.69;3725155;38;20974;-63
2021/06/19 02:31:21;;;;;;;;;9.75;9.75;;;;;15.59;100.00;101170.41;3724927;37;20968;-61
2021/06/19 02:33:48;;;;;;;;;11.25;10.75;;;;;15.61;100.00;101178.34;3724792;38;20988;-63
2021/06/19 02:36:15;;;;;;;;;12.50;12.25;;;;;15.62;100.00;101172.69;3725316;37;20986;-64
2021/06/19 02:38:43;;;;;;;;;10.00;10.00;;;;;15.60;100.00;101174.78;3725098;37;21024;-61
2021/06/19 02:41:12;;;;;;;;;11.50;11.25;;;;;15.54;100.00;101165.50;3725062;38;20982;-61
2021/06/19 02:43:38;;;;;;;;;10.50;10.50;;;;;15.54;100.00;101164.69;3725138;37;20996;-61
2021/06/19 02:46:04;;;;;;;;;12.50;12.25;;;;;15.54;100.00;101173.69;3725160;37;21019;-63
2021/06/19 02:48:35;;;;;;;;;11.00;11.00;;;;;15.58;100.00;101170.59;3724703;38;20979;-62
2021/06/19 02:51:04;;;;;;;;;13.00;13.00;;;;;15.61;100.00;101171.00;3725117;37;20973;-62
2021/06/19 02:53:31;;;;;;;;;10.75;10.75;;;;;15.68;100.00;101171.06;3725111;38;20982;-61
2021/06/19 02:55:57;;;;;;;;;11.25;11.25;;;;;15.73;100.00;101176.75;3725049;38;20953;-63
2021/06/19 02:58:26;;;;;;;;;14.00;12.75;;;;;15.78;100.00;101174.25;3725179;38;20954;-62
2021/06/19 03:00:53;;;;;;;;;12.75;12.75;;;;;15.90;100.00;101180.81;3725347;38;20986;-63
2021/06/19 03:03:20;;;;;;;;;13.75;13.75;;;;;15.89;100.00;101163.59;3725238;38;20942;-61
2021/06/19 03:05:48;;;;;;;;;12.00;12.00;;;;;16.04;100.00;101174.38;3725229;37;20902;-63
2021/06/19 03:08:15;;;;;;;;;11.25;11.25;;;;;16.06;100.00;101175.03;3725044;37;20951;-61
2021/06/19 03:10:42;;;;;;;;;12.00;12.00;;;;;16.04;100.00;101173.53;3725130;38;20971;-62
2021/06/19 03:13:09;;;;;;;;;10.50;10.00;;;;;16.08;100.00;101177.53;3725248;37;20932;-62
2021/06/19 03:15:37;;;;;;;;;10.50;10.50;;;;;16.16;100.00;101180.06;3725265;38;20950;-62
2021/06/19 03:18:07;;;;;;;;;17.25;16.25;;;;;16.23;100.00;101175.47;3725030;37;20930;-61
2021/06/19 03:20:34;;;;;;;;;11.00;11.00;;;;;16.36;100.00;101180.13;3724882;37;20963;-61
2021/06/19 03:23:02;;;;;;;;;14.75;14.00;;;;;16.47;100.00;101179.53;3725410;38;20925;-62
2021/06/19 03:25:37;;;;;;;;;15.75;15.75;;;;;16.60;100.00;101189.66;3725221;38;20942;-62
2021/06/19 03:28:05;;;;;;;;;16.50;15.50;;;;;16.67;100.00;101180.41;3724686;37;20921;-63
2021/06/19 03:30:35;;;;;;;;;17.25;17.00;;;;;16.65;100.00;101171.56;3725238;37;21021;-63
2021/06/19 03:33:02;;;;;;;;;15.00;15.00;;;;;16.84;100.00;101187.16;3725428;38;20937;-63
2021/06/19 03:35:31;;;;;;;;;19.25;19.25;;;;;16.91;100.00;101184.44;3725305;38;20901;-63
2021/06/19 03:37:59;;;;;;;;;16.50;16.50;;;;;16.98;100.00;101187.16;3724830;37;20932;-63
2021/06/19 03:40:28;;;;;;;;;17.75;17.50;;;;;17.02;100.00;101181.06;3725096;38;20906;-62
2021/06/19 03:42:56;;;;;;;;;6.00;5.00;;;;;17.15;100.00;101180.22;3725160;37;20902;-62
2021/06/19 03:45:30;;;;;;;;;20.75;20.00;;;;;17.21;100.00;101174.72;3725278;37;20789;-63
2021/06/19 03:47:58;;;;;;;;;20.00;20.00;;;;;17.29;100.00;101181.88;3725199;37;20841;-65
2021/06/19 03:50:28;;;;;;;;;18.75;18.75;;;;;17.29;100.00;101181.88;3724857;37;20860;-63
2021/06/19 03:52:56;;;;;;;;;18.50;18.50;;;;;17.35;100.00;101182.91;3725055;38;21021;-62
2021/06/19 03:55:24;;;;;;;;;17.75;16.75;;;;;17.40;100.00;101192.16;3725086;38;20893;-63
2021/06/19 03:57:52;;;;;;;;;17.00;16.75;;;;;17.47;100.00;101189.44;3725016;38;20888;-63
2021/06/19 04:00:20;;;;;;;;;21.75;19.50;;;;;17.56;100.00;101185.41;3725112;37;20890;-63
2021/06/19 04:02:48;;;;;;;;;19.25;19.25;;;;;17.61;100.00;101169.19;3725208;38;20847;-65
2021/06/19 04:05:16;;;;;;;;;19.25;18.75;;;;;17.77;100.00;101179.69;3725120;37;20884;-63
2021/06/19 04:07:44;;;;;;;;;20.00;19.00;;;;;17.84;100.00;101187.88;3725115;37;20897;-62
2021/06/19 04:10:12;;;;;;;;;19.00;18.75;;;;;17.93;100.00;101194.78;3725347;38;20879;-63
2021/06/19 04:12:41;;;;;;;;;16.75;16.50;;;;;17.86;100.00;101178.38;3725255;37;20876;-64
2021/06/19 04:15:11;;;;;;;;;18.50;17.75;;;;;17.97;100.00;101193.31;3725259;38;20873;-65
2021/06/19 04:17:38;;;;;;;;;20.00;17.50;;;;;17.98;100.00;101185.94;3725230;38;20883;-62
2021/06/19 04:20:08;;;;;;;;;18.25;18.25;;;;;17.97;100.00;101190.56;3725263;38;20856;-62
2021/06/19 04:22:35;;;;;;;;;18.25;18.00;;;;;18.00;100.00;101186.56;3725102;38;20867;-63
2021/06/19 04:25:04;;;;;;;;;16.25;16.25;;;;;18.05;100.00;101193.06;3725135;37;20835;-64
2021/06/19 04:27:36;;;;;;;;;17.00;17.00;;;;;18.12;100.00;101195.78;3724893;38;20841;-63
2021/06/19 04:30:09;;;;;;;;;18.25;17.75;;;;;18.13;100.00;101183.75;3725171;38;20868;-63
2021/06/19 04:32:36;;;;;;;;;20.25;18.50;;;;;18.21;100.00;101197.19;3724995;38;20861;-62
2021/06/19 04:35:04;;;;;;;;;16.00;16.00;;;;;18.23;100.00;101206.03;3725305;38;20852;-63
2021/06/19 04:37:33;;;;;;;;;19.00;19.00;;;;;18.16;100.00;101199.75;3725146;37;20831;-63
2021/06/19 04:40:15;;;;;;;;;19.75;19.25;;;;;18.22;100.00;101195.28;3725134;37;20851;-63
2021/06/19 04:42:45;;;;;;;;;21.75;20.50;;;;;18.20;100.00;101190.84;3724973;37;20834;-64
2021/06/19 04:45:13;;;;;;;;;20.25;18.75;;;;;18.30;100.00;101193.13;3725195;38;20838;-64
2021/06/19 04:47:42;;;;;;;;;17.75;17.75;;;;;18.29;100.00;101201.56;3725196;37;20812;-65
2021/06/19 04:50:11;;;;;;;;;20.75;20.00;;;;;18.26;100.00;101193.78;3724915;37;20814;-65
2021/06/19 04:52:42;;;;;;;;;18.75;18.50;;;;;18.20;100.00;101195.50;3725321;37;20812;-64
2021/06/19 04:55:17;;;;;;;;;16.75;16.75;;;;;18.25;100.00;101194.84;3725163;37;20807;-64
2021/06/19 04:57:52;;;;;;;;;14.25;13.50;;;;;18.27;100.00;101195.47;3724690;38;20824;-63
2021/06/19 05:00:20;;;;;;;;;23.00;21.50;;;;;18.38;100.00;101197.53;3724537;38;20806;-64
2021/06/19 05:02:47;;;;;;;;;15.00;15.00;;;;;18.35;100.00;101203.44;3724846;38;20813;-63
2021/06/19 05:05:14;;;;;;;;;18.25;17.25;;;;;18.36;100.00;101208.69;3726571;37;20787;-64
2021/06/19 05:07:41;;;;;;;;;19.25;18.75;;;;;18.30;100.00;101212.31;3724920;37;20802;-63
2021/06/19 05:10:09;;;;;;;;;19.75;18.75;;;;;18.37;100.00;101218.59;3724987;38;20770;-64
2021/06/19 05:12:39;;;;;;;;;19.75;19.00;;;;;18.37;100.00;101206.81;3725088;38;20779;-64
2021/06/19 05:15:07;;;;;;;;;18.00;17.50;;;;;18.35;100.00;101212.50;3725253;37;20774;-64
2021/06/19 05:17:33;;;;;;;;;20.75;20.75;;;;;18.39;100.00;101215.66;3724890;38;20795;-63
2021/06/19 05:20:01;;;;;;;;;18.50;18.50;;;;;18.45;100.00;101215.63;3725065;38;20698;-63
2021/06/19 05:22:30;;;;;;;;;19.75;19.25;;;;;18.53;100.00;101217.25;3724896;38;20765;-63
2021/06/19 05:24:57;;;;;;;;;23.25;22.50;;;;;18.57;100.00;101220.41;3724835;38;20767;-63
2021/06/19 05:27:24;;;;;;;;;18.25;17.75;;;;;18.60;100.00;101211.75;3725070;37;20723;-64
2021/06/19 05:29:51;;;;;;;;;20.50;19.50;;;;;18.53;100.00;101207.13;3724971;38;20717;-64
2021/06/19 05:32:17;;;;;;;;;19.25;18.50;;;;;18.58;100.00;101225.66;3725162;37;20708;-64
2021/06/19 05:34:46;;;;;;;;;17.25;17.25;;;;;18.58;100.00;101219.34;3725040;38;20775;-63
2021/06/19 05:37:12;;;;;;;;;21.75;21.75;;;;;18.70;100.00;101236.81;3724465;38;20694;-63
2021/06/19 05:39:41;;;;;;;;;16.25;16.25;;;;;18.64;100.00;101230.31;3725206;38;20698;-63
2021/06/19 05:42:09;;;;;;;;;21.00;21.00;;;;;18.80;100.00;101239.88;3724579;38;20766;-62
2021/06/19 05:44:37;;;;;;;;;22.25;21.50;;;;;18.85;100.00;101240.06;3725850;38;20694;-63
2021/06/19 05:47:07;;;;;;;;;19.50;19.50;;;;;18.88;100.00;101242.34;3725627;37;20694;-64
2021/06/19 05:49:34;;;;;;;;;15.00;15.00;;;;;18.94;100.00;101241.47;3725017;37;20752;-63
2021/06/19 05:52:00;;;;;;;;;18.50;18.50;;;;;19.06;100.00;101238.84;3725005;37;20740;-62
2021/06/19 05:54:29;;;;;;;;;19.75;19.75;;;;;18.99;100.00;101227.09;3724659;37;20745;-64
2021/06/19 05:56:56;;;;;;;;;19.00;19.00;;;;;19.11;100.00;101245.34;3724446;37;20757;-63
2021/06/19 05:59:23;;;;;;;;;23.00;23.00;;;;;19.03;100.00;101244.78;3724385;37;20730;-64
2021/06/19 06:01:49;;;;;;;;;16.50;16.50;;;;;19.05;100.00;101245.41;3724365;38;20664;-64
2021/06/19 06:04:17;;;;;;;;;17.25;17.00;;;;;19.01;100.00;101244.16;3724528;38;20724;-64
2021/06/19 06:06:43;;;;;;;;;19.00;18.00;;;;;18.90;100.00;101244.88;3724441;37;20744;-65
2021/06/19 06:09:11;;;;;;;;;13.25;13.25;;;;;18.89;100.00;101245.94;3723938;37;20717;-64
2021/06/19 06:11:38;;;;;;;;;15.00;15.00;;;;;18.88;100.00;101252.50;3724371;37;20729;-64
2021/06/19 06:14:08;;;;;;;;;15.75;15.75;;;;;18.80;100.00;101250.84;3724251;38;20707;-64
2021/06/19 06:16:35;;;;;;;;;17.75;17.75;;;;;18.94;100.00;101257.94;3724694;37;20711;-63
2021/06/19 06:19:06;;;;;;;;;16.00;16.00;;;;;19.03;100.00;101261.25;3724203;38;20698;-64
2021/06/19 06:21:32;;;;;;;;;14.75;14.75;;;;;19.05;100.00;101254.47;3724617;37;20717;-64
2021/06/19 06:23:59;;;;;;;;;15.50;15.25;;;;;19.06;100.00;101255.31;3724447;38;20692;-64
2021/06/19 06:26:27;;;;;;;;;16.75;16.00;;;;;19.03;100.00;101258.50;3724516;37;20718;-64
2021/06/19 06:28:54;;;;;;;;;13.50;13.00;;;;;18.85;100.00;101248.28;3724078;37;20683;-64
2021/06/19 06:31:22;;;;;;;;;15.50;15.00;;;;;18.91;100.00;101255.62;3724649;37;20690;-64
2021/06/19 06:34:27;;;;;;;;;15.50;15.50;;;;;19.08;100.00;101261.44;3738006;38;20662;-64
2021/06/19 06:37:18;;;;;;;;;16.75;16.75;;;;;19.22;100.00;101264.91;3742439;38;20670;-64
2021/06/19 06:40:08;;;;;;;;;13.00;13.00;;;;;19.17;100.00;101260.09;3742038;37;20656;-63
2021/06/19 06:42:41;;;;;;;;;14.25;14.25;;;;;19.18;100.00;101268.09;3726160;37;20660;-65
2021/06/19 06:45:13;;;;;;;;;11.00;10.75;;;;;19.02;100.00;101265.06;3725189;38;20654;-65
2021/06/19 06:47:40;;;;;;;;;11.00;11.00;;;;;18.84;100.00;101260.31;3725065;37;20637;-66
2021/06/19 06:50:12;;;;;;;;;13.00;13.00;;;;;18.99;100.00;101274.56;3725866;37;20652;-64
2021/06/19 06:52:41;;;;;;;;;14.00;14.00;;;;;19.18;100.00;101272.75;3725521;37;20644;-63
2021/06/19 06:55:09;;;;;;;;;16.50;16.50;;;;;19.22;100.00;101274.00;3725113;37;20720;-64
2021/06/19 06:57:36;;;;;;;;;13.75;13.75;;;;;19.18;100.00;101270.00;3725114;37;20646;-63
2021/06/19 07:00:04;;;;;;;;;10.75;10.75;;;;;19.07;100.00;101274.31;3724893;37;20641;-64
2021/06/19 07:02:31;;;;;;;;;11.00;11.00;;;;;19.06;100.00;101274.53;3725036;37;20618;-64
2021/06/19 07:04:58;;;;;;;;;14.00;14.00;;;;;19.10;100.00;101270.28;3724994;38;20623;-64
2021/06/19 07:07:50;;;;;;;;;13.00;13.00;;;;;19.12;100.00;101276.38;3724731;37;20629;-64
2021/06/19 07:10:17;;;;;;;;;13.00;13.00;;;;;19.08;100.00;101269.66;3724406;37;20655;-64
2021/06/19 07:12:45;;;;;;;;;11.00;11.00;;;;;18.99;100.00;101260.84;3725130;37;20611;-63
2021/06/19 07:15:14;;;;;;;;;11.50;11.50;;;;;19.12;100.00;101281.88;3725154;37;20632;-64
2021/06/19 07:17:42;;;;;;;;;10.25;10.25;;;;;19.14;100.00;101275.09;3724953;37;20613;-65
2021/06/19 07:20:11;;;;;;;;;10.00;10.00;;;;;19.20;100.00;101276.12;3724563;38;20615;-64
2021/06/19 07:22:38;;;;;;;;;11.00;11.00;;;;;19.23;100.00;101278.41;3725060;38;20602;-64
2021/06/19 07:25:06;;;;;;;;;11.00;11.00;;;;;19.26;100.00;101282.59;3724981;38;20591;-63
2021/06/19 07:27:33;;;;;;;;;12.00;12.00;;;;;19.43;100.00;101281.81;3724689;38;20617;-64
2021/06/19 07:30:01;;;;;;;;;11.75;11.00;;;;;19.46;100.00;101283.28;3724904;37;20600;-64
2021/06/19 07:32:28;;;;;;;;;9.25;9.25;;;;;19.44;100.00;101280.75;3724771;37;20612;-64
2021/06/19 07:34:59;;;;;;;;;10.00;10.00;;;;;19.39;100.00;101282.47;3724834;38;20609;-64
2021/06/19 07:37:26;;;;;;;;;8.50;8.50;;;;;19.20;100.00;101278.84;3725226;37;20600;-63
2021/06/19 07:39:54;;;;;;;;;10.00;10.00;;;;;19.42;100.00;101284.78;3725070;38;20559;-65
2021/06/19 07:42:21;;;;;;;;;9.75;9.00;;;;;19.46;100.00;101280.53;3725471;37;20570;-64
2021/06/19 07:44:49;;;;;;;;;8.50;8.50;;;;;19.44;100.00;101286.25;3725347;38;20593;-64
2021/06/19 07:47:15;;;;;;;;;9.00;9.00;;;;;19.51;100.00;101280.72;3725305;37;20572;-64
2021/06/19 07:49:42;;;;;;;;;8.75;8.75;;;;;20.00;100.00;101274.31;3724981;37;20555;-64
2021/06/19 07:52:08;;;;;;;;;11.75;11.75;;;;;20.34;100.00;101266.47;3724936;37;20543;-64
2021/06/19 07:54:37;;;;;;;;;7.75;7.75;;;;;20.70;100.00;101279.38;3725045;38;20561;-64
2021/06/19 07:57:08;;;;;;;;;9.00;9.00;;;;;21.06;100.00;101272.91;3724942;38;20547;-63
2021/06/19 07:59:35;;;;;;;;;9.00;9.00;;;;;21.22;100.00;101271.41;3724640;38;20559;-64
2021/06/19 08:02:06;;;;;;;;;7.00;7.00;;;;;21.12;100.00;101263.72;3724913;38;20538;-64
2021/06/19 08:04:34;;;;;;;;;7.50;7.50;;;;;20.98;100.00;101276.00;3724777;38;20505;-64
2021/06/19 08:07:01;;;;;;;;;8.00;8.00;;;;;20.63;97.50;101281.37;3725070;37;20501;-63
2021/06/19 08:09:28;;;;;;;;;9.00;9.00;;;;;20.45;97.39;101274.00;3725025;38;20529;-63
2021/06/19 08:11:54;;;;;;;;;6.00;6.00;;;;;20.14;97.80;101264.00;3725085;38;20489;-63
2021/06/19 08:14:21;;;;;;;;;8.00;8.00;;;;;20.08;98.88;101276.75;3725113;37;20500;-63
2021/06/19 08:16:53;;;;;;;;;8.75;8.75;;;;;19.95;99.15;101268.66;3725626;37;20504;-63
2021/06/19 08:19:23;;;;;;;;;8.50;8.50;;;;;19.90;99.28;101282.22;3725013;37;20492;-65
2021/06/19 08:21:50;;;;;;;;;6.75;6.75;;;;;19.74;99.28;101277.34;3724578;38;20495;-63
2021/06/19 08:24:18;;;;;;;;;9.50;9.50;;;;;19.85;100.00;101276.56;3725059;38;20544;-63
2021/06/19 08:26:45;;;;;;;;;7.50;7.50;;;;;19.90;100.00;101273.97;3725862;37;20478;-63
2021/06/19 08:29:12;;;;;;;;;8.00;8.00;;;;;19.89;99.93;101279.72;3724975;37;20476;-62
2021/06/19 08:31:41;;;;;;;;;7.75;7.75;;;;;19.91;100.00;101269.34;3724980;37;20471;-63
2021/06/19 08:34:08;;;;;;;;;8.75;8.75;;;;;19.99;100.00;101269.88;3724923;37;20475;-62
2021/06/19 08:36:35;;;;;;;;;7.75;7.75;;;;;20.29;100.00;101271.84;3724968;37;20475;-63
2021/06/19 08:39:03;;;;;;;;;9.00;9.00;;;;;20.62;100.00;101266.78;3724665;37;20474;-64
2021/06/19 08:41:31;;;;;;;;;6.75;6.00;;;;;20.81;99.01;101265.66;3725016;37;20478;-63
2021/06/19 08:44:05;;;;;;;;;6.25;6.25;;;;;21.07;99.61;101264.41;3724700;38;20450;-63
2021/06/19 08:46:36;;;;;;;;;6.25;6.25;;;;;21.27;98.93;101269.62;3724968;38;20656;-63
2021/06/19 08:49:03;;;;;;;;;6.25;6.25;;;;;21.31;96.51;101272.75;3725013;37;20482;-62
2021/06/19 08:51:29;;;;;;;;;5.25;5.25;;;;;21.36;96.04;101267.34;3725047;38;20455;-64
2021/06/19 08:53:57;;;;;;;;;5.00;5.00;;;;;21.47;94.64;101270.13;3725048;38;20449;-64
2021/06/19 08:56:24;;;;;;;;;5.50;5.00;;;;;21.38;91.94;101271.53;3725102;38;20727;-62
2021/06/19 08:58:54;;;;;;;;;6.50;6.50;;;;;21.43;93.35;101268.06;3724911;37;20429;-64
2021/06/19 09:01:21;;;;;;;;;5.75;5.75;;;;;21.43;93.51;101273.59;3725003;37;20452;-64
2021/06/19 09:03:47;;;;;;;;;6.75;6.75;;;;;21.53;93.93;101271.09;3724861;37;20421;-63
2021/06/19 09:06:26;;;;;;;;;9.00;8.00;;;;;21.51;93.83;101272.41;3724867;38;20539;-64
2021/06/19 09:09:15;;;;;;;;;7.50;7.50;;;;;21.75;93.30;101271.34;3724803;37;20819;-63
2021/06/19 09:11:52;;;;;;;;;8.00;8.00;;;;;21.79;92.91;101278.88;3724539;38;20784;-63
2021/06/19 09:14:27;;;;;;;;;7.00;7.00;;;;;21.82;91.11;101277.56;3724965;38;20799;-63
2021/06/19 09:17:20;;;;;;;;;5.00;4.75;;;;;21.96;90.70;101270.69;3725057;37;20771;-64
2021/06/19 09:19:53;;;;;;;;;9.75;9.75;;;;;22.26;89.22;101269.72;3724873;37;20754;-64
2021/06/19 09:22:26;;;;;;;;;8.75;8.25;;;;;22.57;89.45;101274.75;3724701;38;20794;-63
2021/06/19 09:25:01;;;;;;;;;5.25;5.25;;;;;22.64;86.14;101272.69;3723734;37;20796;-64
2021/06/19 09:27:45;;;;;;;;;6.00;6.00;;;;;22.83;85.96;101276.12;3724961;37;20761;-63
2021/06/19 09:30:22;;;;;;;;;6.25;6.25;;;;;23.04;85.46;101272.62;3724811;38;20761;-62
2021/06/19 09:33:02;;;;;;;;;5.00;5.00;;;;;23.01;85.80;101277.81;3724437;38;20782;-63
2021/06/19 09:35:40;;;;;;;;;8.00;7.00;;;;;22.96;83.96;101273.03;3724851;38;20746;-63
2021/06/19 09:38:13;;;;;;;;;6.00;6.00;;;;;22.89;83.50;101271.53;3724679;38;20762;-64
2021/06/19 09:40:46;;;;;;;;;7.75;7.75;;;;;22.87;83.91;101273.72;3724934;38;20810;-63
2021/06/19 09:43:31;;;;;;;;;5.50;5.50;;;;;22.83;81.76;101273.38;3724372;38;20760;-64
2021/06/19 09:46:10;;;;;;;;;8.00;7.00;;;;;22.86;83.32;101267.37;3724643;38;20727;-63
2021/06/19 09:48:48;;;;;;;;;6.50;6.00;;;;;23.04;84.18;101264.34;3724549;38;20764;-64
2021/06/19 09:51:20;;;;;;;;;6.25;6.25;;;;;22.95;82.84;101257.56;3724850;37;20722;-65
2021/06/19 09:54:08;;;;;;;;;8.00;8.00;;;;;23.11;82.53;101267.81;3724586;37;20757;-64
2021/06/19 09:57:13;;;;;;;;;10.25;8.25;;;;;23.04;82.32;101272.62;3724652;37;20804;-63
2021/06/19 09:59:42;;;;;;;;;11.50;10.50;;;;;22.99;82.82;101244.09;3725123;37;20868;-64
2021/06/19 10:02:27;;;;;;;;;9.00;9.00;;;;;23.29;82.94;101266.72;3725133;38;20824;-63
2021/06/19 10:05:04;;;;;;;;;10.00;9.00;;;;;23.25;80.48;101218.59;3724848;37;20743;-63
2021/06/19 10:07:33;;;;;;;;;6.00;6.00;;;;;23.59;81.04;101266.41;3724435;38;20744;-63
2021/06/19 10:10:02;;;;;;;;;6.75;6.75;;;;;23.72;77.12;101265.22;3724676;38;20741;-63
2021/06/19 10:12:38;;;;;;;;;4.25;4.25;;;;;23.57;76.57;101262.22;3724488;38;20744;-65
2021/06/19 10:15:12;;;;;;;;;9.50;9.50;;;;;23.77;79.19;101257.84;3725664;38;20794;-63
2021/06/19 10:17:43;;;;;;;;;6.50;6.50;;;;;23.60;78.32;101261.72;3724846;37;20671;-63
2021/06/19 10:20:15;;;;;;;;;7.00;7.00;;;;;23.56;77.93;101255.00;3724864;37;20695;-63
2021/06/19 10:22:43;;;;;;;;;8.00;6.75;;;;;23.50;76.94;101247.69;3724923;37;20718;-62
2021/06/19 10:25:15;;;;;;;;;9.50;8.25;;;;;23.27;75.77;101241.28;3724992;37;20852;-63
2021/06/19 10:27:47;;;;;;;;;7.00;7.00;;;;;23.25;76.82;101248.97;3724434;38;20775;-64
2021/06/19 10:30:17;;;;;;;;;7.00;7.00;;;;;23.41;78.06;101252.81;3724608;37;20699;-64
2021/06/19 10:32:47;;;;;;;;;7.00;7.00;;;;;23.51;75.61;101235.56;3724949;37;20717;-64
2021/06/19 10:35:17;;;;;;;;;6.00;6.00;;;;;23.65;73.84;101247.97;3724235;37;20785;-63
2021/06/19 10:37:47;;;;;;;;;3.00;3.00;;;;;23.59;73.24;101247.06;3724790;37;20680;-63
2021/06/19 10:40:50;;;;;;;;;8.00;7.00;;;;;23.53;76.09;101245.31;3724491;37;20677;-64
2021/06/19 10:43:21;;;;;;;;;7.75;7.75;;;;;23.35;76.22;101249.16;3724752;38;20687;-62
2021/06/19 10:45:48;;;;;;;;;5.50;5.50;;;;;23.18;78.08;101248.31;3724823;37;20661;-63
2021/06/19 10:48:16;;;;;;;;;8.25;8.25;;;;;23.02;78.40;101249.97;3724568;37;20717;-65
2021/06/19 10:50:51;;;;;;;;;10.75;10.75;;;;;23.03;79.33;101248.03;3724586;38;20732;-65
2021/06/19 10:53:23;;;;;;;;;10.75;10.75;;;;;22.97;80.82;101249.03;3724614;37;20766;-65
2021/06/19 10:55:57;;;;;;;;;9.25;8.50;;;;;22.95;80.28;101243.75;3724604;38;20721;-65
2021/06/19 10:58:31;;;;;;;;;7.00;7.00;;;;;22.89;80.86;101244.75;3724802;38;20705;-66
2021/06/19 11:01:02;;;;;;;;;15.75;15.25;;;;;23.00;79.75;101243.84;3724370;38;20660;-65
2021/06/19 11:03:56;;;;;;;;;9.75;9.00;;;;;22.91;80.45;101236.22;3725014;38;20578;-65
2021/06/19 11:06:36;;;;;;;;;10.50;10.50;;;;;23.05;79.44;101237.59;3724885;38;20674;-65
2021/06/19 11:09:15;;;;;;;;;7.50;7.50;;;;;23.05;76.99;101234.81;3726780;37;20693;-67
2021/06/19 11:12:01;;;;;;;;;6.00;6.00;;;;;23.07;77.92;101229.87;3724926;38;20602;-66
2021/06/19 11:14:54;;;;;;;;;8.00;8.00;;;;;23.23;78.55;101217.19;3725014;37;20599;-64
2021/06/19 11:17:54;;;;;;;;;6.75;6.75;;;;;23.48;77.68;101230.53;3724461;38;20580;-67
2021/06/19 11:20:25;;;;;;;;;10.00;10.00;;;;;23.56;78.18;101225.47;3724404;37;20604;-64
2021/06/19 11:23:02;;;;;;;;;7.50;7.00;;;;;23.67;77.71;101235.56;3723974;38;20666;-65
2021/06/19 11:25:39;;;;;;;;;6.75;6.00;;;;;23.67;77.16;101232.81;3724185;37;20575;-65